Metar z pełnej godziny Komunikat METAR ze strony awiacja.imgw.pl Metar G00 EPRZ METAR EPRZ 261800Z 26011KT 9999 -SN BKN036 M02/M04 Q1009 R27/78//93 =